sensor_id;sensor_type;location;lat;lon;timestamp;P1;durP1;ratioP1;P2;durP2;ratioP2
83447;SDS011;73376;45.472;-73.568;2024-01-27T00:01:52;16.40;;;10.10;;
83447;SDS011;73376;45.472;-73.568;2024-01-27T00:04:18;17.87;;;10.40;;
83447;SDS011;73376;45.472;-73.568;2024-01-27T00:06:44;18.80;;;10.47;;
83447;SDS011;73376;45.472;-73.568;2024-01-27T00:09:10;16.63;;;10.40;;
83447;SDS011;73376;45.472;-73.568;2024-01-27T00:11:36;19.03;;;10.87;;
83447;SDS011;73376;45.472;-73.568;2024-01-27T00:14:04;19.07;;;11.27;;
83447;SDS011;73376;45.472;-73.568;2024-01-27T00:16:32;18.60;;;11.17;;
83447;SDS011;73376;45.472;-73.568;2024-01-27T00:18:58;19.83;;;10.60;;
83447;SDS011;73376;45.472;-73.568;2024-01-27T00:21:24;18.57;;;10.67;;
83447;SDS011;73376;45.472;-73.568;2024-01-27T00:23:50;19.10;;;11.67;;
83447;SDS011;73376;45.472;-73.568;2024-01-27T00:26:16;18.40;;;10.63;;
83447;SDS011;73376;45.472;-73.568;2024-01-27T00:28:44;17.33;;;10.53;;
83447;SDS011;73376;45.472;-73.568;2024-01-27T00:31:10;14.80;;;9.83;;
83447;SDS011;73376;45.472;-73.568;2024-01-27T00:33:36;17.13;;;9.97;;
83447;SDS011;73376;45.472;-73.568;2024-01-27T00:36:02;18.40;;;10.50;;
83447;SDS011;73376;45.472;-73.568;2024-01-27T00:38:29;18.77;;;10.80;;
83447;SDS011;73376;45.472;-73.568;2024-01-27T00:40:54;19.47;;;11.10;;
83447;SDS011;73376;45.472;-73.568;2024-01-27T00:43:20;20.10;;;11.43;;
83447;SDS011;73376;45.472;-73.568;2024-01-27T00:45:46;19.13;;;10.77;;
83447;SDS011;73376;45.472;-73.568;2024-01-27T00:48:12;16.97;;;10.20;;
83447;SDS011;73376;45.472;-73.568;2024-01-27T00:50:38;22.13;;;11.00;;
83447;SDS011;73376;45.472;-73.568;2024-01-27T00:53:04;21.80;;;11.43;;
83447;SDS011;73376;45.472;-73.568;2024-01-27T00:55:30;19.03;;;11.27;;
83447;SDS011;73376;45.472;-73.568;2024-01-27T00:57:56;20.33;;;10.93;;
83447;SDS011;73376;45.472;-73.568;2024-01-27T01:00:22;21.07;;;11.37;;
83447;SDS011;73376;45.472;-73.568;2024-01-27T01:02:48;21.33;;;12.07;;
83447;SDS011;73376;45.472;-73.568;2024-01-27T01:05:14;22.57;;;12.07;;
83447;SDS011;73376;45.472;-73.568;2024-01-27T01:07:40;22.73;;;12.43;;
83447;SDS011;73376;45.472;-73.568;2024-01-27T01:10:06;21.00;;;11.37;;
83447;SDS011;73376;45.472;-73.568;2024-01-27T01:12:33;22.67;;;13.07;;
83447;SDS011;73376;45.472;-73.568;2024-01-27T01:14:59;23.30;;;12.73;;
83447;SDS011;73376;45.472;-73.568;2024-01-27T01:17:25;23.90;;;13.13;;
83447;SDS011;73376;45.472;-73.568;2024-01-27T01:19:51;21.07;;;12.70;;
83447;SDS011;73376;45.472;-73.568;2024-01-27T01:22:16;22.83;;;12.60;;
83447;SDS011;73376;45.472;-73.568;2024-01-27T01:24:42;25.43;;;13.20;;
83447;SDS011;73376;45.472;-73.568;2024-01-27T01:27:08;21.87;;;13.10;;
83447;SDS011;73376;45.472;-73.568;2024-01-27T01:29:34;23.33;;;12.97;;
83447;SDS011;73376;45.472;-73.568;2024-01-27T01:32:00;21.13;;;12.83;;
83447;SDS011;73376;45.472;-73.568;2024-01-27T01:34:28;19.67;;;11.90;;
83447;SDS011;73376;45.472;-73.568;2024-01-27T01:36:54;21.73;;;12.83;;
83447;SDS011;73376;45.472;-73.568;2024-01-27T01:39:22;24.73;;;12.37;;
83447;SDS011;73376;45.472;-73.568;2024-01-27T01:41:48;21.17;;;11.33;;
83447;SDS011;73376;45.472;-73.568;2024-01-27T01:44:14;23.00;;;11.03;;
83447;SDS011;73376;45.472;-73.568;2024-01-27T01:46:40;18.40;;;11.13;;
83447;SDS011;73376;45.472;-73.568;2024-01-27T01:49:06;19.93;;;12.07;;
83447;SDS011;73376;45.472;-73.568;2024-01-27T01:51:33;19.73;;;10.97;;
83447;SDS011;73376;45.472;-73.568;2024-01-27T01:54:01;19.17;;;12.07;;
83447;SDS011;73376;45.472;-73.568;2024-01-27T01:56:31;21.53;;;12.37;;
83447;SDS011;73376;45.472;-73.568;2024-01-27T01:58:57;19.47;;;12.10;;
83447;SDS011;73376;45.472;-73.568;2024-01-27T02:01:23;18.87;;;11.80;;
83447;SDS011;73376;45.472;-73.568;2024-01-27T02:03:52;23.13;;;12.53;;
83447;SDS011;73376;45.472;-73.568;2024-01-27T02:06:19;22.90;;;11.93;;
83447;SDS011;73376;45.472;-73.568;2024-01-27T02:08:45;23.63;;;13.50;;
83447;SDS011;73376;45.472;-73.568;2024-01-27T02:11:11;21.37;;;12.10;;
83447;SDS011;73376;45.472;-73.568;2024-01-27T02:13:37;22.53;;;13.23;;
83447;SDS011;73376;45.472;-73.568;2024-01-27T02:16:03;26.93;;;13.40;;
83447;SDS011;73376;45.472;-73.568;2024-01-27T02:18:32;28.37;;;12.37;;
83447;SDS011;73376;45.472;-73.568;2024-01-27T02:20:58;23.20;;;12.73;;
83447;SDS011;73376;45.472;-73.568;2024-01-27T02:23:26;22.23;;;12.10;;
83447;SDS011;73376;45.472;-73.568;2024-01-27T02:25:55;20.10;;;11.60;;
83447;SDS011;73376;45.472;-73.568;2024-01-27T02:28:22;23.13;;;12.47;;
83447;SDS011;73376;45.472;-73.568;2024-01-27T02:30:52;26.77;;;13.37;;
83447;SDS011;73376;45.472;-73.568;2024-01-27T02:33:18;20.57;;;12.50;;
83447;SDS011;73376;45.472;-73.568;2024-01-27T02:35:44;22.50;;;12.27;;
83447;SDS011;73376;45.472;-73.568;2024-01-27T02:38:13;23.40;;;12.07;;
83447;SDS011;73376;45.472;-73.568;2024-01-27T02:40:39;26.07;;;13.03;;
83447;SDS011;73376;45.472;-73.568;2024-01-27T02:43:05;18.77;;;12.17;;
83447;SDS011;73376;45.472;-73.568;2024-01-27T02:45:33;24.47;;;12.30;;
83447;SDS011;73376;45.472;-73.568;2024-01-27T02:48:02;21.50;;;11.87;;
83447;SDS011;73376;45.472;-73.568;2024-01-27T02:50:28;23.33;;;11.70;;
83447;SDS011;73376;45.472;-73.568;2024-01-27T02:52:54;21.57;;;11.77;;
83447;SDS011;73376;45.472;-73.568;2024-01-27T02:55:20;22.10;;;10.80;;
83447;SDS011;73376;45.472;-73.568;2024-01-27T02:57:46;19.70;;;10.60;;
83447;SDS011;73376;45.472;-73.568;2024-01-27T03:00:12;19.00;;;10.60;;
83447;SDS011;73376;45.472;-73.568;2024-01-27T03:02:40;18.77;;;10.47;;
83447;SDS011;73376;45.472;-73.568;2024-01-27T03:05:06;19.97;;;9.80;;
83447;SDS011;73376;45.472;-73.568;2024-01-27T03:07:35;18.93;;;9.33;;
83447;SDS011;73376;45.472;-73.568;2024-01-27T03:10:01;15.83;;;9.00;;
83447;SDS011;73376;45.472;-73.568;2024-01-27T03:12:27;15.40;;;8.67;;
83447;SDS011;73376;45.472;-73.568;2024-01-27T03:14:53;13.33;;;7.97;;
83447;SDS011;73376;45.472;-73.568;2024-01-27T03:17:20;16.33;;;8.97;;
83447;SDS011;73376;45.472;-73.568;2024-01-27T03:19:45;16.00;;;8.73;;
83447;SDS011;73376;45.472;-73.568;2024-01-27T03:22:14;14.50;;;8.77;;
83447;SDS011;73376;45.472;-73.568;2024-01-27T03:24:40;13.97;;;8.20;;
83447;SDS011;73376;45.472;-73.568;2024-01-27T03:27:06;13.53;;;8.40;;
83447;SDS011;73376;45.472;-73.568;2024-01-27T03:29:34;15.13;;;8.60;;
83447;SDS011;73376;45.472;-73.568;2024-01-27T03:32:01;13.77;;;8.00;;
83447;SDS011;73376;45.472;-73.568;2024-01-27T03:34:27;18.80;;;8.90;;
83447;SDS011;73376;45.472;-73.568;2024-01-27T03:36:53;15.47;;;8.70;;
83447;SDS011;73376;45.472;-73.568;2024-01-27T03:39:19;12.40;;;7.50;;
83447;SDS011;73376;45.472;-73.568;2024-01-27T03:41:45;14.57;;;7.47;;
83447;SDS011;73376;45.472;-73.568;2024-01-27T03:44:11;13.27;;;7.63;;
83447;SDS011;73376;45.472;-73.568;2024-01-27T03:46:37;12.23;;;7.63;;
83447;SDS011;73376;45.472;-73.568;2024-01-27T03:49:05;12.30;;;7.33;;
83447;SDS011;73376;45.472;-73.568;2024-01-27T03:51:33;14.70;;;7.17;;
83447;SDS011;73376;45.472;-73.568;2024-01-27T03:54:02;14.57;;;7.07;;
83447;SDS011;73376;45.472;-73.568;2024-01-27T03:56:31;15.10;;;7.70;;
83447;SDS011;73376;45.472;-73.568;2024-01-27T03:58:57;13.63;;;7.27;;
83447;SDS011;73376;45.472;-73.568;2024-01-27T04:01:23;12.60;;;7.37;;
83447;SDS011;73376;45.472;-73.568;2024-01-27T04:03:49;13.20;;;7.63;;
83447;SDS011;73376;45.472;-73.568;2024-01-27T04:06:15;13.30;;;7.00;;
83447;SDS011;73376;45.472;-73.568;2024-01-27T04:08:41;15.30;;;6.50;;
83447;SDS011;73376;45.472;-73.568;2024-01-27T04:11:18;12.23;;;6.37;;
83447;SDS011;73376;45.472;-73.568;2024-01-27T04:13:49;10.57;;;6.03;;
83447;SDS011;73376;45.472;-73.568;2024-01-27T04:16:21;11.63;;;6.37;;
83447;SDS011;73376;45.472;-73.568;2024-01-27T04:18:47;9.77;;;5.73;;
83447;SDS011;73376;45.472;-73.568;2024-01-27T04:21:13;11.33;;;6.87;;
83447;SDS011;73376;45.472;-73.568;2024-01-27T04:23:39;10.90;;;6.67;;
83447;SDS011;73376;45.472;-73.568;2024-01-27T04:26:07;12.80;;;6.77;;
83447;SDS011;73376;45.472;-73.568;2024-01-27T04:28:34;11.47;;;6.00;;
83447;SDS011;73376;45.472;-73.568;2024-01-27T04:31:00;12.93;;;6.67;;
83447;SDS011;73376;45.472;-73.568;2024-01-27T04:33:26;13.23;;;5.60;;
83447;SDS011;73376;45.472;-73.568;2024-01-27T04:35:52;10.93;;;6.30;;
83447;SDS011;73376;45.472;-73.568;2024-01-27T04:38:18;10.13;;;6.23;;
83447;SDS011;73376;45.472;-73.568;2024-01-27T04:40:44;12.47;;;6.00;;
83447;SDS011;73376;45.472;-73.568;2024-01-27T04:43:14;10.20;;;5.70;;
83447;SDS011;73376;45.472;-73.568;2024-01-27T04:45:41;11.05;;;4.82;;
83447;SDS011;73376;45.472;-73.568;2024-01-27T04:48:07;9.90;;;5.43;;
83447;SDS011;73376;45.472;-73.568;2024-01-27T04:50:36;11.20;;;5.73;;
83447;SDS011;73376;45.472;-73.568;2024-01-27T04:53:04;9.47;;;5.30;;
83447;SDS011;73376;45.472;-73.568;2024-01-27T04:55:33;11.27;;;5.80;;
83447;SDS011;73376;45.472;-73.568;2024-01-27T04:57:59;13.37;;;6.23;;
83447;SDS011;73376;45.472;-73.568;2024-01-27T05:00:25;10.87;;;6.00;;
83447;SDS011;73376;45.472;-73.568;2024-01-27T05:02:54;14.47;;;6.53;;
83447;SDS011;73376;45.472;-73.568;2024-01-27T05:05:20;10.73;;;6.00;;
83447;SDS011;73376;45.472;-73.568;2024-01-27T05:07:46;12.03;;;6.80;;
83447;SDS011;73376;45.472;-73.568;2024-01-27T05:10:14;10.43;;;5.73;;
83447;SDS011;73376;45.472;-73.568;2024-01-27T05:12:41;14.10;;;6.43;;
83447;SDS011;73376;45.472;-73.568;2024-01-27T05:15:07;13.10;;;6.33;;
83447;SDS011;73376;45.472;-73.568;2024-01-27T05:17:35;12.90;;;6.67;;
83447;SDS011;73376;45.472;-73.568;2024-01-27T05:20:01;14.20;;;6.90;;
83447;SDS011;73376;45.472;-73.568;2024-01-27T05:22:29;14.53;;;6.67;;
83447;SDS011;73376;45.472;-73.568;2024-01-27T05:24:55;11.57;;;6.07;;
83447;SDS011;73376;45.472;-73.568;2024-01-27T05:27:22;14.20;;;6.30;;
83447;SDS011;73376;45.472;-73.568;2024-01-27T05:29:48;13.23;;;6.10;;
83447;SDS011;73376;45.472;-73.568;2024-01-27T05:32:15;16.30;;;6.60;;
83447;SDS011;73376;45.472;-73.568;2024-01-27T05:34:41;14.37;;;6.40;;
83447;SDS011;73376;45.472;-73.568;2024-01-27T05:37:07;12.97;;;6.30;;
83447;SDS011;73376;45.472;-73.568;2024-01-27T05:39:33;12.27;;;6.67;;
83447;SDS011;73376;45.472;-73.568;2024-01-27T05:42:02;12.83;;;6.50;;
83447;SDS011;73376;45.472;-73.568;2024-01-27T05:44:28;14.77;;;7.10;;
83447;SDS011;73376;45.472;-73.568;2024-01-27T05:46:54;12.30;;;6.70;;
83447;SDS011;73376;45.472;-73.568;2024-01-27T05:49:20;15.07;;;6.97;;
83447;SDS011;73376;45.472;-73.568;2024-01-27T05:51:46;15.50;;;7.00;;
83447;SDS011;73376;45.472;-73.568;2024-01-27T05:54:12;11.83;;;6.90;;
83447;SDS011;73376;45.472;-73.568;2024-01-27T05:56:42;16.83;;;7.70;;
83447;SDS011;73376;45.472;-73.568;2024-01-27T05:59:08;14.87;;;7.40;;
83447;SDS011;73376;45.472;-73.568;2024-01-27T06:01:36;17.67;;;8.53;;
83447;SDS011;73376;45.472;-73.568;2024-01-27T06:04:02;17.00;;;8.23;;
83447;SDS011;73376;45.472;-73.568;2024-01-27T06:06:28;18.13;;;9.20;;
83447;SDS011;73376;45.472;-73.568;2024-01-27T06:08:54;19.63;;;9.17;;
83447;SDS011;73376;45.472;-73.568;2024-01-27T06:11:24;18.23;;;9.03;;
83447;SDS011;73376;45.472;-73.568;2024-01-27T06:13:50;16.80;;;8.73;;
83447;SDS011;73376;45.472;-73.568;2024-01-27T06:16:18;20.00;;;9.07;;
83447;SDS011;73376;45.472;-73.568;2024-01-27T06:18:47;20.43;;;9.20;;
83447;SDS011;73376;45.472;-73.568;2024-01-27T06:21:13;19.23;;;9.07;;
83447;SDS011;73376;45.472;-73.568;2024-01-27T06:23:39;18.23;;;8.13;;
83447;SDS011;73376;45.472;-73.568;2024-01-27T06:26:08;17.47;;;8.57;;
83447;SDS011;73376;45.472;-73.568;2024-01-27T06:28:37;16.50;;;8.37;;
83447;SDS011;73376;45.472;-73.568;2024-01-27T06:31:06;17.70;;;9.63;;
83447;SDS011;73376;45.472;-73.568;2024-01-27T06:33:34;15.30;;;9.40;;
83447;SDS011;73376;45.472;-73.568;2024-01-27T06:36:00;15.40;;;8.37;;
83447;SDS011;73376;45.472;-73.568;2024-01-27T06:38:27;14.27;;;8.07;;
83447;SDS011;73376;45.472;-73.568;2024-01-27T06:40:57;15.00;;;8.53;;
83447;SDS011;73376;45.472;-73.568;2024-01-27T06:43:26;14.47;;;7.77;;
83447;SDS011;73376;45.472;-73.568;2024-01-27T06:45:51;14.33;;;7.37;;
83447;SDS011;73376;45.472;-73.568;2024-01-27T06:48:18;15.10;;;7.77;;
83447;SDS011;73376;45.472;-73.568;2024-01-27T06:50:46;15.63;;;7.23;;
83447;SDS011;73376;45.472;-73.568;2024-01-27T06:53:12;16.07;;;7.00;;
83447;SDS011;73376;45.472;-73.568;2024-01-27T06:55:38;13.33;;;6.73;;
83447;SDS011;73376;45.472;-73.568;2024-01-27T06:58:04;17.00;;;7.00;;
83447;SDS011;73376;45.472;-73.568;2024-01-27T07:00:32;12.10;;;6.47;;
83447;SDS011;73376;45.472;-73.568;2024-01-27T07:02:58;11.23;;;6.17;;
83447;SDS011;73376;45.472;-73.568;2024-01-27T07:05:26;11.13;;;5.97;;
83447;SDS011;73376;45.472;-73.568;2024-01-27T07:07:52;10.97;;;5.63;;
83447;SDS011;73376;45.472;-73.568;2024-01-27T07:10:19;10.27;;;5.10;;
83447;SDS011;73376;45.472;-73.568;2024-01-27T07:12:45;9.20;;;4.93;;
83447;SDS011;73376;45.472;-73.568;2024-01-27T07:15:11;10.30;;;4.93;;
83447;SDS011;73376;45.472;-73.568;2024-01-27T07:17:40;8.10;;;4.80;;
83447;SDS011;73376;45.472;-73.568;2024-01-27T07:20:06;8.30;;;4.80;;
83447;SDS011;73376;45.472;-73.568;2024-01-27T07:22:33;7.50;;;4.33;;
83447;SDS011;73376;45.472;-73.568;2024-01-27T07:24:59;8.07;;;4.47;;
83447;SDS011;73376;45.472;-73.568;2024-01-27T07:27:28;11.13;;;4.90;;
83447;SDS011;73376;45.472;-73.568;2024-01-27T07:29:54;6.97;;;3.93;;
83447;SDS011;73376;45.472;-73.568;2024-01-27T07:32:20;5.77;;;3.60;;
83447;SDS011;73376;45.472;-73.568;2024-01-27T07:34:47;7.70;;;3.83;;
83447;SDS011;73376;45.472;-73.568;2024-01-27T07:37:13;7.20;;;3.87;;
83447;SDS011;73376;45.472;-73.568;2024-01-27T07:39:39;5.97;;;3.70;;
83447;SDS011;73376;45.472;-73.568;2024-01-27T07:42:08;6.10;;;3.70;;
83447;SDS011;73376;45.472;-73.568;2024-01-27T07:44:35;6.63;;;3.73;;
83447;SDS011;73376;45.472;-73.568;2024-01-27T07:47:01;7.47;;;4.07;;
83447;SDS011;73376;45.472;-73.568;2024-01-27T07:49:27;6.97;;;4.27;;
83447;SDS011;73376;45.472;-73.568;2024-01-27T07:51:53;6.33;;;3.87;;
83447;SDS011;73376;45.472;-73.568;2024-01-27T07:54:20;8.03;;;4.13;;
83447;SDS011;73376;45.472;-73.568;2024-01-27T07:56:46;8.33;;;4.53;;
83447;SDS011;73376;45.472;-73.568;2024-01-27T07:59:12;8.23;;;4.20;;
83447;SDS011;73376;45.472;-73.568;2024-01-27T08:01:41;8.37;;;4.10;;
83447;SDS011;73376;45.472;-73.568;2024-01-27T08:04:07;7.83;;;4.63;;
83447;SDS011;73376;45.472;-73.568;2024-01-27T08:06:33;9.23;;;4.57;;
83447;SDS011;73376;45.472;-73.568;2024-01-27T08:08:59;8.17;;;4.70;;
83447;SDS011;73376;45.472;-73.568;2024-01-27T08:11:25;7.37;;;4.57;;
83447;SDS011;73376;45.472;-73.568;2024-01-27T08:13:51;11.37;;;5.07;;
83447;SDS011;73376;45.472;-73.568;2024-01-27T08:16:17;10.80;;;5.27;;
83447;SDS011;73376;45.472;-73.568;2024-01-27T08:18:43;9.73;;;5.03;;
83447;SDS011;73376;45.472;-73.568;2024-01-27T08:21:10;11.10;;;5.30;;
83447;SDS011;73376;45.472;-73.568;2024-01-27T08:23:39;8.57;;;4.80;;
83447;SDS011;73376;45.472;-73.568;2024-01-27T08:26:06;11.40;;;5.50;;
83447;SDS011;73376;45.472;-73.568;2024-01-27T08:28:32;10.03;;;5.80;;
83447;SDS011;73376;45.472;-73.568;2024-01-27T08:30:58;9.70;;;5.30;;
83447;SDS011;73376;45.472;-73.568;2024-01-27T08:33:25;11.40;;;5.20;;
83447;SDS011;73376;45.472;-73.568;2024-01-27T08:35:51;10.50;;;5.90;;
83447;SDS011;73376;45.472;-73.568;2024-01-27T08:38:17;9.97;;;5.53;;
83447;SDS011;73376;45.472;-73.568;2024-01-27T08:40:43;10.60;;;5.67;;
83447;SDS011;73376;45.472;-73.568;2024-01-27T08:43:09;11.53;;;6.00;;
83447;SDS011;73376;45.472;-73.568;2024-01-27T08:45:37;10.33;;;6.03;;
83447;SDS011;73376;45.472;-73.568;2024-01-27T08:48:06;11.60;;;5.70;;
83447;SDS011;73376;45.472;-73.568;2024-01-27T08:50:32;10.43;;;6.87;;
83447;SDS011;73376;45.472;-73.568;2024-01-27T08:53:02;9.60;;;5.47;;
83447;SDS011;73376;45.472;-73.568;2024-01-27T08:55:28;10.70;;;5.63;;
83447;SDS011;73376;45.472;-73.568;2024-01-27T08:57:54;12.53;;;5.77;;
83447;SDS011;73376;45.472;-73.568;2024-01-27T09:00:24;12.07;;;6.77;;
83447;SDS011;73376;45.472;-73.568;2024-01-27T09:02:50;10.50;;;6.67;;
83447;SDS011;73376;45.472;-73.568;2024-01-27T09:05:17;14.90;;;7.23;;
83447;SDS011;73376;45.472;-73.568;2024-01-27T09:07:43;13.80;;;7.37;;
83447;SDS011;73376;45.472;-73.568;2024-01-27T09:10:09;14.77;;;7.60;;
83447;SDS011;73376;45.472;-73.568;2024-01-27T09:12:37;14.87;;;7.33;;
83447;SDS011;73376;45.472;-73.568;2024-01-27T09:15:06;15.70;;;7.70;;
83447;SDS011;73376;45.472;-73.568;2024-01-27T09:17:32;15.10;;;8.03;;
83447;SDS011;73376;45.472;-73.568;2024-01-27T09:19:58;14.63;;;7.97;;
83447;SDS011;73376;45.472;-73.568;2024-01-27T09:22:27;15.27;;;8.17;;
83447;SDS011;73376;45.472;-73.568;2024-01-27T09:24:52;15.53;;;7.97;;
83447;SDS011;73376;45.472;-73.568;2024-01-27T09:27:20;15.03;;;8.37;;
83447;SDS011;73376;45.472;-73.568;2024-01-27T09:29:46;15.57;;;9.03;;
83447;SDS011;73376;45.472;-73.568;2024-01-27T09:32:12;16.97;;;9.00;;
83447;SDS011;73376;45.472;-73.568;2024-01-27T09:34:38;20.00;;;9.30;;
83447;SDS011;73376;45.472;-73.568;2024-01-27T09:37:06;15.77;;;8.80;;
83447;SDS011;73376;45.472;-73.568;2024-01-27T09:39:34;16.10;;;8.83;;
83447;SDS011;73376;45.472;-73.568;2024-01-27T09:42:06;16.30;;;8.32;;
83447;SDS011;73376;45.472;-73.568;2024-01-27T09:44:34;16.17;;;8.23;;
83447;SDS011;73376;45.472;-73.568;2024-01-27T09:47:00;17.63;;;8.53;;
83447;SDS011;73376;45.472;-73.568;2024-01-27T09:49:28;13.53;;;8.20;;
83447;SDS011;73376;45.472;-73.568;2024-01-27T09:51:55;15.27;;;8.70;;
83447;SDS011;73376;45.472;-73.568;2024-01-27T09:54:22;14.63;;;7.60;;
83447;SDS011;73376;45.472;-73.568;2024-01-27T09:56:48;14.27;;;7.70;;
83447;SDS011;73376;45.472;-73.568;2024-01-27T09:59:16;14.33;;;8.63;;
83447;SDS011;73376;45.472;-73.568;2024-01-27T10:01:44;15.27;;;8.20;;
83447;SDS011;73376;45.472;-73.568;2024-01-27T10:04:10;17.90;;;8.50;;
83447;SDS011;73376;45.472;-73.568;2024-01-27T10:06:37;17.60;;;8.40;;
83447;SDS011;73376;45.472;-73.568;2024-01-27T10:09:04;14.50;;;8.33;;
83447;SDS011;73376;45.472;-73.568;2024-01-27T10:11:30;13.80;;;8.20;;
83447;SDS011;73376;45.472;-73.568;2024-01-27T10:14:00;15.50;;;7.73;;
83447;SDS011;73376;45.472;-73.568;2024-01-27T10:16:27;13.13;;;7.50;;
83447;SDS011;73376;45.472;-73.568;2024-01-27T10:19:04;15.03;;;8.07;;
83447;SDS011;73376;45.472;-73.568;2024-01-27T10:21:30;15.80;;;8.10;;
83447;SDS011;73376;45.472;-73.568;2024-01-27T10:24:00;16.07;;;7.87;;
83447;SDS011;73376;45.472;-73.568;2024-01-27T10:26:30;14.87;;;7.93;;
83447;SDS011;73376;45.472;-73.568;2024-01-27T10:28:57;14.57;;;7.73;;
83447;SDS011;73376;45.472;-73.568;2024-01-27T10:31:29;12.50;;;7.63;;
83447;SDS011;73376;45.472;-73.568;2024-01-27T10:33:57;13.43;;;7.60;;
83447;SDS011;73376;45.472;-73.568;2024-01-27T10:36:23;15.63;;;7.43;;
83447;SDS011;73376;45.472;-73.568;2024-01-27T10:38:51;13.40;;;7.20;;
83447;SDS011;73376;45.472;-73.568;2024-01-27T10:41:23;13.23;;;7.07;;
83447;SDS011;73376;45.472;-73.568;2024-01-27T10:43:54;11.17;;;6.17;;
83447;SDS011;73376;45.472;-73.568;2024-01-27T10:46:23;12.13;;;7.03;;
83447;SDS011;73376;45.472;-73.568;2024-01-27T10:48:52;12.73;;;6.73;;
83447;SDS011;73376;45.472;-73.568;2024-01-27T10:51:29;11.47;;;6.67;;
83447;SDS011;73376;45.472;-73.568;2024-01-27T10:54:01;14.70;;;7.33;;
83447;SDS011;73376;45.472;-73.568;2024-01-27T10:56:31;12.57;;;7.35;;
83447;SDS011;73376;45.472;-73.568;2024-01-27T10:58:59;11.80;;;6.70;;
83447;SDS011;73376;45.472;-73.568;2024-01-27T11:01:25;13.57;;;7.00;;
83447;SDS011;73376;45.472;-73.568;2024-01-27T11:03:53;13.90;;;7.30;;
83447;SDS011;73376;45.472;-73.568;2024-01-27T11:06:24;14.55;;;7.10;;
83447;SDS011;73376;45.472;-73.568;2024-01-27T11:08:55;12.35;;;7.05;;
83447;SDS011;73376;45.472;-73.568;2024-01-27T11:11:22;16.20;;;7.57;;
83447;SDS011;73376;45.472;-73.568;2024-01-27T11:13:50;14.03;;;7.73;;
83447;SDS011;73376;45.472;-73.568;2024-01-27T11:16:17;13.27;;;7.57;;
83447;SDS011;73376;45.472;-73.568;2024-01-27T11:18:44;13.50;;;6.87;;
83447;SDS011;73376;45.472;-73.568;2024-01-27T11:21:14;13.47;;;7.57;;
83447;SDS011;73376;45.472;-73.568;2024-01-27T11:23:41;12.33;;;7.00;;
83447;SDS011;73376;45.472;-73.568;2024-01-27T11:26:08;12.97;;;7.33;;
83447;SDS011;73376;45.472;-73.568;2024-01-27T11:28:35;11.20;;;6.97;;
83447;SDS011;73376;45.472;-73.568;2024-01-27T11:31:06;11.10;;;6.77;;
83447;SDS011;73376;45.472;-73.568;2024-01-27T11:33:32;12.87;;;6.77;;
83447;SDS011;73376;45.472;-73.568;2024-01-27T11:36:02;14.87;;;7.30;;
83447;SDS011;73376;45.472;-73.568;2024-01-27T11:38:30;11.98;;;7.15;;
83447;SDS011;73376;45.472;-73.568;2024-01-27T11:40:57;15.10;;;6.97;;
83447;SDS011;73376;45.472;-73.568;2024-01-27T11:43:27;13.43;;;6.73;;
83447;SDS011;73376;45.472;-73.568;2024-01-27T11:46:00;13.40;;;6.93;;
83447;SDS011;73376;45.472;-73.568;2024-01-27T11:48:27;11.67;;;7.23;;
83447;SDS011;73376;45.472;-73.568;2024-01-27T11:51:05;12.67;;;7.20;;
83447;SDS011;73376;45.472;-73.568;2024-01-27T11:53:36;13.10;;;7.10;;
83447;SDS011;73376;45.472;-73.568;2024-01-27T11:56:05;11.43;;;7.10;;
83447;SDS011;73376;45.472;-73.568;2024-01-27T11:58:32;13.00;;;7.83;;
83447;SDS011;73376;45.472;-73.568;2024-01-27T12:00:58;12.67;;;6.27;;
83447;SDS011;73376;45.472;-73.568;2024-01-27T12:03:26;11.20;;;6.33;;
83447;SDS011;73376;45.472;-73.568;2024-01-27T12:05:52;12.93;;;6.67;;
83447;SDS011;73376;45.472;-73.568;2024-01-27T12:08:18;13.63;;;7.80;;
83447;SDS011;73376;45.472;-73.568;2024-01-27T12:10:44;14.63;;;6.77;;
83447;SDS011;73376;45.472;-73.568;2024-01-27T12:13:10;10.90;;;5.97;;
83447;SDS011;73376;45.472;-73.568;2024-01-27T12:15:36;14.37;;;6.60;;
83447;SDS011;73376;45.472;-73.568;2024-01-27T12:18:05;12.50;;;6.87;;
83447;SDS011;73376;45.472;-73.568;2024-01-27T12:20:32;11.80;;;6.50;;
83447;SDS011;73376;45.472;-73.568;2024-01-27T12:23:03;12.93;;;6.33;;
83447;SDS011;73376;45.472;-73.568;2024-01-27T12:25:30;12.27;;;6.43;;
83447;SDS011;73376;45.472;-73.568;2024-01-27T12:27:56;12.93;;;7.13;;
83447;SDS011;73376;45.472;-73.568;2024-01-27T12:30:29;10.33;;;6.07;;
83447;SDS011;73376;45.472;-73.568;2024-01-27T12:32:57;14.57;;;6.93;;
83447;SDS011;73376;45.472;-73.568;2024-01-27T12:35:23;12.23;;;6.57;;
83447;SDS011;73376;45.472;-73.568;2024-01-27T12:37:49;11.93;;;6.43;;
83447;SDS011;73376;45.472;-73.568;2024-01-27T12:40:19;10.57;;;6.53;;
83447;SDS011;73376;45.472;-73.568;2024-01-27T12:42:46;11.90;;;6.97;;
83447;SDS011;73376;45.472;-73.568;2024-01-27T12:45:15;12.80;;;6.90;;
83447;SDS011;73376;45.472;-73.568;2024-01-27T12:47:44;12.07;;;7.27;;
83447;SDS011;73376;45.472;-73.568;2024-01-27T12:50:10;12.60;;;6.40;;
83447;SDS011;73376;45.472;-73.568;2024-01-27T12:52:36;11.70;;;6.53;;
83447;SDS011;73376;45.472;-73.568;2024-01-27T12:55:03;15.17;;;7.03;;
83447;SDS011;73376;45.472;-73.568;2024-01-27T12:57:30;12.13;;;6.37;;
83447;SDS011;73376;45.472;-73.568;2024-01-27T12:59:56;11.70;;;6.43;;
83447;SDS011;73376;45.472;-73.568;2024-01-27T13:02:22;13.20;;;6.77;;
83447;SDS011;73376;45.472;-73.568;2024-01-27T13:04:48;12.80;;;6.30;;
83447;SDS011;73376;45.472;-73.568;2024-01-27T13:07:14;14.83;;;6.77;;
83447;SDS011;73376;45.472;-73.568;2024-01-27T13:09:42;11.60;;;6.40;;
83447;SDS011;73376;45.472;-73.568;2024-01-27T13:12:08;12.50;;;6.47;;
83447;SDS011;73376;45.472;-73.568;2024-01-27T13:14:34;11.63;;;6.40;;
83447;SDS011;73376;45.472;-73.568;2024-01-27T13:17:00;12.30;;;5.90;;
83447;SDS011;73376;45.472;-73.568;2024-01-27T13:19:27;10.73;;;5.80;;
83447;SDS011;73376;45.472;-73.568;2024-01-27T13:21:53;11.43;;;6.50;;
83447;SDS011;73376;45.472;-73.568;2024-01-27T13:24:19;10.27;;;5.63;;
83447;SDS011;73376;45.472;-73.568;2024-01-27T13:26:45;11.83;;;6.30;;
83447;SDS011;73376;45.472;-73.568;2024-01-27T13:29:13;10.43;;;6.00;;
83447;SDS011;73376;45.472;-73.568;2024-01-27T13:31:39;7.90;;;5.10;;
83447;SDS011;73376;45.472;-73.568;2024-01-27T13:34:05;11.43;;;6.10;;
83447;SDS011;73376;45.472;-73.568;2024-01-27T13:36:31;11.50;;;5.90;;
83447;SDS011;73376;45.472;-73.568;2024-01-27T13:39:02;9.77;;;5.77;;
83447;SDS011;73376;45.472;-73.568;2024-01-27T13:41:29;13.73;;;6.27;;
83447;SDS011;73376;45.472;-73.568;2024-01-27T13:43:55;13.00;;;6.27;;
83447;SDS011;73376;45.472;-73.568;2024-01-27T13:46:21;13.50;;;6.33;;
83447;SDS011;73376;45.472;-73.568;2024-01-27T13:48:48;11.50;;;6.20;;
83447;SDS011;73376;45.472;-73.568;2024-01-27T13:51:14;14.93;;;6.93;;
83447;SDS011;73376;45.472;-73.568;2024-01-27T13:53:40;11.70;;;5.83;;
83447;SDS011;73376;45.472;-73.568;2024-01-27T13:56:06;11.33;;;6.50;;
83447;SDS011;73376;45.472;-73.568;2024-01-27T13:58:35;15.30;;;6.20;;
83447;SDS011;73376;45.472;-73.568;2024-01-27T14:01:01;12.00;;;6.47;;
83447;SDS011;73376;45.472;-73.568;2024-01-27T14:03:33;12.20;;;6.83;;
83447;SDS011;73376;45.472;-73.568;2024-01-27T14:06:00;10.67;;;5.90;;
83447;SDS011;73376;45.472;-73.568;2024-01-27T14:08:28;12.07;;;6.13;;